Terminal Aerodrome Forecast
Issued by NWS

Home | Current Version | Previous Version | Text Only | Print | Product List | Glossary On
Versions: 1 2 3 4 5 6 7 8 9 10 11 12 13 14 15 16 17 18 19
841
FTUS43 KMQT 041825 AAA
TAFCMX
TAF AMD
KCMX 041825Z 0418/0518 16009KT 2SM -SN BR OVC015
      TEMPO 0419/0423 1SM -SN
     FM050300 18007KT 4SM -SN BR OVC015
     FM050900 24008KT P6SM OVC008
     FM051300 25009KT P6SM BKN010
     FM051700 25008KT P6SM SCT020=

USA.gov is the U.S. government's official web portal to all federal, state and local government web resources and services.